Time;durP1;ratioP1;P1;durP2;ratioP2;P2;SDS_P1;SDS_P2;PMS_P1;PMS_P2;Temp;Humidity;BMP_temperature;BMP_pressure;BME280_temperature;BME280_humidity;BME280_pressure;Samples;Min_cycle;Max_cycle;Signal;HPM_P1;HPM_P2
2022/05/12 00:01:30;;;;;;;21.30;10.98;;;19.70;58.20;;;;;;5010908;28;92492;-66
2022/05/12 00:03:55;;;;;;;22.02;11.20;;;19.80;58.10;;;;;;5011597;28;92235;-66
2022/05/12 00:06:21;;;;;;;18.15;9.80;;;19.70;58.00;;;;;;5007355;28;93336;-66
2022/05/12 00:08:46;;;;;;;22.40;10.70;;;19.70;58.00;;;;;;5011391;28;92671;-66
2022/05/12 00:11:12;;;;;;;20.33;9.93;;;19.70;57.90;;;;;;5009939;28;95546;-66
2022/05/12 00:13:38;;;;;;;23.17;10.43;;;19.70;58.00;;;;;;5011646;28;92952;-66
2022/05/12 00:16:04;;;;;;;20.42;10.15;;;19.70;57.90;;;;;;5010848;28;93191;-66
2022/05/12 00:18:30;;;;;;;19.23;10.20;;;19.70;57.90;;;;;;5010307;28;93184;-65
2022/05/12 00:20:56;;;;;;;20.15;9.82;;;19.70;57.90;;;;;;5009785;28;93051;-66
2022/05/12 00:23:25;;;;;;;17.83;9.35;;;19.70;57.90;;;;;;5010785;28;92531;-66
2022/05/12 00:25:51;;;;;;;18.15;9.50;;;19.70;57.90;;;;;;4992960;28;93315;-67
2022/05/12 00:28:20;;;;;;;19.30;9.35;;;19.70;57.80;;;;;;5011548;28;92656;-67
2022/05/12 00:30:47;;;;;;;18.08;9.00;;;19.70;57.70;;;;;;5010899;28;93087;-67
2022/05/12 00:33:15;;;;;;;18.00;9.02;;;19.70;57.70;;;;;;4992891;28;92829;-67
2022/05/12 00:35:42;;;;;;;15.68;9.15;;;19.60;57.70;;;;;;4990469;28;96515;-66
2022/05/12 00:38:09;;;;;;;16.67;9.20;;;19.70;57.70;;;;;;5010892;28;94817;-67
2022/05/12 00:40:35;;;;;;;17.05;8.90;;;19.70;57.60;;;;;;5010927;28;92523;-67
2022/05/12 00:43:07;;;;;;;17.10;8.18;;;19.70;57.60;;;;;;5010625;28;92987;-67
2022/05/12 00:45:38;;;;;;;16.63;8.13;;;19.70;57.60;;;;;;4991900;28;93248;-67
2022/05/12 00:48:05;;;;;;;19.38;8.90;;;19.70;57.60;;;;;;4992915;28;93457;-67
2022/05/12 00:50:42;;;;;;;16.65;7.90;;;19.60;57.60;;;;;;5010088;28;92935;-65
2022/05/12 00:53:11;;;;;;;15.35;7.88;;;19.60;57.50;;;;;;4994421;28;92771;-65
2022/05/12 00:55:40;;;;;;;17.35;7.88;;;19.70;57.60;;;;;;4991775;28;94169;-66
2022/05/12 00:58:09;;;;;;;14.82;8.25;;;19.60;57.50;;;;;;5010418;28;93549;-66
2022/05/12 01:00:36;;;;;;;16.08;7.95;;;19.70;57.50;;;;;;5009697;28;94929;-65
2022/05/12 01:03:07;;;;;;;14.20;7.25;;;19.70;57.50;;;;;;4992622;28;92596;-67
2022/05/12 01:05:34;;;;;;;13.77;7.53;;;19.60;57.40;;;;;;4991653;28;94135;-65
2022/05/12 01:08:01;;;;;;;15.80;7.50;;;19.60;57.50;;;;;;4992292;28;92990;-66
2022/05/12 01:10:29;;;;;;;15.82;7.28;;;19.60;57.40;;;;;;5010869;28;93237;-65
2022/05/12 01:12:55;;;;;;;12.68;7.00;;;19.60;57.40;;;;;;4993086;28;93011;-65
2022/05/12 01:15:24;;;;;;;14.48;6.90;;;19.60;57.40;;;;;;5010928;28;93365;-66
2022/05/12 01:17:59;;;;;;;13.45;6.60;;;19.60;57.30;;;;;;5010928;28;92651;-66
2022/05/12 01:20:25;;;;;;;13.20;6.78;;;19.60;57.30;;;;;;5009500;28;92809;-66
2022/05/12 01:23:00;;;;;;;12.52;6.63;;;19.60;57.30;;;;;;5009274;28;92585;-66
2022/05/12 01:25:29;;;;;;;15.02;6.72;;;19.60;57.30;;;;;;5008706;28;96165;-66
2022/05/12 01:27:55;;;;;;;13.52;7.30;;;19.60;57.30;;;;;;5010100;28;95931;-67
2022/05/12 01:30:23;;;;;;;15.05;7.10;;;19.60;57.30;;;;;;5010057;28;92739;-67
2022/05/12 01:32:49;;;;;;;12.52;6.40;;;19.60;57.20;;;;;;5009697;28;93171;-67
2022/05/12 01:35:24;;;;;;;11.80;6.07;;;19.60;57.20;;;;;;5009518;28;93678;-67
2022/05/12 01:37:49;;;;;;;13.20;6.40;;;19.60;57.20;;;;;;5010164;28;92524;-67
2022/05/12 01:40:19;;;;;;;11.50;6.35;;;19.60;57.30;;;;;;5009028;28;92590;-67
2022/05/12 01:42:45;;;;;;;11.50;5.78;;;19.60;57.20;;;;;;4992290;28;92391;-67
2022/05/12 01:45:11;;;;;;;11.07;5.35;;;19.60;57.20;;;;;;5009829;28;93187;-66
2022/05/12 01:47:38;;;;;;;11.65;5.85;;;19.60;57.20;;;;;;5009132;28;92753;-66
2022/05/12 01:50:05;;;;;;;10.68;5.70;;;19.60;57.20;;;;;;4992297;28;95519;-66
2022/05/12 01:52:30;;;;;;;11.95;5.50;;;19.60;57.10;;;;;;5001478;28;92563;-66
2022/05/12 01:54:56;;;;;;;12.00;5.80;;;19.60;57.20;;;;;;4993139;28;92666;-66
2022/05/12 01:57:22;;;;;;;10.63;5.50;;;19.50;57.10;;;;;;4992097;28;92662;-66
2022/05/12 01:59:49;;;;;;;8.90;5.03;;;19.60;57.10;;;;;;5008794;28;93468;-66
2022/05/12 02:02:15;;;;;;;11.20;5.60;;;19.50;57.10;;;;;;5010067;28;92512;-66
2022/05/12 02:04:41;;;;;;;11.02;5.63;;;19.50;57.00;;;;;;5009855;28;92929;-66
2022/05/12 02:07:07;;;;;;;9.18;4.80;;;19.50;57.10;;;;;;5010416;28;92786;-67
2022/05/12 02:09:32;;;;;;;11.05;5.40;;;19.50;57.00;;;;;;4991328;28;93019;-66
2022/05/12 02:11:58;;;;;;;9.85;5.22;;;19.50;57.00;;;;;;5008749;28;92680;-66
2022/05/12 02:14:24;;;;;;;8.75;4.60;;;19.50;57.00;;;;;;4989602;28;98435;-66
2022/05/12 02:16:50;;;;;;;8.77;4.85;;;19.50;56.90;;;;;;5009707;28;94056;-66
2022/05/12 02:19:16;;;;;;;8.15;4.78;;;19.50;56.90;;;;;;5010026;28;92539;-66
2022/05/12 02:21:41;;;;;;;9.75;5.03;;;19.50;56.90;;;;;;5009533;28;92547;-67
2022/05/12 02:24:07;;;;;;;8.63;4.40;;;19.50;56.90;;;;;;5009155;28;93150;-66
2022/05/12 02:26:33;;;;;;;7.78;4.38;;;19.50;56.90;;;;;;5009248;28;92865;-66
2022/05/12 02:28:59;;;;;;;11.68;5.30;;;19.50;56.90;;;;;;5009808;28;92479;-66
2022/05/12 02:31:25;;;;;;;11.02;4.70;;;19.50;56.90;;;;;;5009928;28;91797;-66
2022/05/12 02:33:51;;;;;;;8.52;4.43;;;19.50;56.90;;;;;;5009237;28;93086;-66
2022/05/12 02:36:16;;;;;;;9.98;4.78;;;19.50;56.80;;;;;;5008843;28;92650;-66
2022/05/12 02:38:42;;;;;;;8.60;4.13;;;19.50;56.80;;;;;;5008352;28;95431;-66
2022/05/12 02:41:08;;;;;;;9.02;4.38;;;19.40;56.80;;;;;;5010170;28;92462;-66
2022/05/12 02:43:34;;;;;;;9.30;4.47;;;19.50;56.80;;;;;;4992941;28;93943;-66
2022/05/12 02:46:05;;;;;;;7.85;4.57;;;19.50;56.80;;;;;;4994587;28;94192;-66
2022/05/12 02:48:33;;;;;;;10.07;4.20;;;19.50;56.90;;;;;;5012769;28;92948;-66
2022/05/12 02:50:59;;;;;;;8.07;4.35;;;19.50;56.80;;;;;;4994857;28;93431;-67
2022/05/12 02:53:26;;;;;;;7.60;3.95;;;19.40;56.80;;;;;;4994523;28;93398;-66
2022/05/12 02:55:52;;;;;;;7.85;4.03;;;19.40;56.80;;;;;;4994306;28;92856;-66
2022/05/12 02:58:18;;;;;;;7.20;3.95;;;19.50;56.80;;;;;;5012562;28;92989;-66
2022/05/12 03:00:45;;;;;;;8.10;4.20;;;19.40;56.80;;;;;;5012326;28;92954;-67
2022/05/12 03:03:10;;;;;;;7.35;3.55;;;19.40;56.80;;;;;;5011188;28;95748;-67
2022/05/12 03:05:37;;;;;;;7.63;3.60;;;19.40;56.80;;;;;;5012271;28;95104;-66
2022/05/12 03:08:03;;;;;;;7.47;3.85;;;19.40;56.80;;;;;;5012040;28;92554;-67
2022/05/12 03:10:32;;;;;;;6.97;3.92;;;19.40;56.80;;;;;;4994717;28;93223;-67
2022/05/12 03:12:58;;;;;;;8.18;3.67;;;19.40;56.80;;;;;;5012098;28;93227;-67
2022/05/12 03:15:23;;;;;;;6.82;3.78;;;19.40;56.80;;;;;;5012007;28;93463;-67
2022/05/12 03:17:49;;;;;;;8.60;3.75;;;19.40;56.80;;;;;;4993140;28;93065;-67
2022/05/12 03:20:18;;;;;;;7.63;3.80;;;19.40;56.90;;;;;;5012366;28;92646;-66
2022/05/12 03:22:44;;;;;;;6.65;3.60;;;19.40;56.80;;;;;;5011879;28;93280;-66
2022/05/12 03:25:12;;;;;;;6.85;3.80;;;19.40;56.80;;;;;;4993279;28;94236;-67
2022/05/12 03:27:39;;;;;;;7.78;3.50;;;19.40;56.80;;;;;;5011040;28;95391;-66
2022/05/12 03:30:07;;;;;;;7.35;3.63;;;19.40;56.80;;;;;;4993853;28;92776;-67
2022/05/12 03:32:33;;;;;;;6.55;3.45;;;19.40;56.80;;;;;;5011828;28;93638;-67
2022/05/12 03:34:59;;;;;;;5.13;3.22;;;19.40;56.80;;;;;;4994639;28;93485;-67
2022/05/12 03:37:25;;;;;;;6.13;3.10;;;19.40;56.80;;;;;;5012267;28;92925;-66
2022/05/12 03:39:50;;;;;;;6.50;3.42;;;19.40;56.80;;;;;;4992980;28;93065;-67
2022/05/12 03:42:18;;;;;;;9.10;3.63;;;19.40;56.80;;;;;;5011661;28;93269;-67
2022/05/12 03:44:47;;;;;;;6.63;3.40;;;19.40;56.80;;;;;;5012252;28;93667;-67
2022/05/12 03:47:14;;;;;;;8.57;3.60;;;19.40;56.80;;;;;;5011825;28;92848;-67
2022/05/12 03:49:41;;;;;;;6.32;3.35;;;19.40;56.80;;;;;;5010476;28;92858;-68
2022/05/12 03:52:08;;;;;;;6.57;3.25;;;19.40;56.80;;;;;;5009752;28;95398;-67
2022/05/12 03:54:34;;;;;;;8.77;3.83;;;19.40;56.80;;;;;;4992261;28;95081;-67
2022/05/12 03:57:01;;;;;;;7.43;3.30;;;19.40;56.80;;;;;;5011478;28;92455;-68
2022/05/12 03:59:27;;;;;;;6.65;3.05;;;19.40;56.90;;;;;;5010357;28;92736;-67
2022/05/12 04:01:52;;;;;;;6.45;3.00;;;19.40;56.90;;;;;;5011181;28;93856;-67
2022/05/12 04:04:18;;;;;;;6.43;3.08;;;19.40;56.80;;;;;;5011835;28;93208;-67
2022/05/12 04:06:43;;;;;;;8.85;3.33;;;19.40;56.90;;;;;;4992125;28;92806;-67
2022/05/12 04:09:10;;;;;;;7.07;3.05;;;19.40;56.90;;;;;;5011645;28;91892;-67
2022/05/12 04:11:36;;;;;;;6.53;3.13;;;19.40;57.00;;;;;;5011053;28;93036;-67
2022/05/12 04:14:01;;;;;;;8.40;2.97;;;19.40;57.00;;;;;;5010585;28;92925;-67
2022/05/12 04:16:27;;;;;;;7.28;3.25;;;19.40;57.10;;;;;;5009333;28;95395;-67
2022/05/12 04:18:53;;;;;;;5.40;2.78;;;19.40;57.10;;;;;;5011085;28;92491;-67
2022/05/12 04:21:18;;;;;;;6.18;2.80;;;19.40;57.10;;;;;;5010469;28;93820;-67
2022/05/12 04:23:44;;;;;;;7.50;3.03;;;19.40;57.20;;;;;;5010634;28;93315;-68
2022/05/12 04:26:10;;;;;;;4.97;2.90;;;19.40;57.10;;;;;;5011015;28;92472;-67
2022/05/12 04:28:37;;;;;;;6.82;3.17;;;19.40;57.20;;;;;;4992521;28;92802;-67
2022/05/12 04:31:02;;;;;;;4.82;2.75;;;19.40;57.20;;;;;;5010953;28;93023;-68
2022/05/12 04:36:13;;;;;;;5.70;3.00;;;19.30;57.20;;;;;;5011091;28;92801;-67
2022/05/12 04:38:39;;;;;;;6.30;2.85;;;19.40;57.20;;;;;;5010342;28;92625;-67
2022/05/12 04:41:06;;;;;;;6.85;3.03;;;19.40;57.30;;;;;;5009856;28;95545;-68
2022/05/12 04:43:32;;;;;;;8.00;2.90;;;19.40;57.20;;;;;;5010595;28;95210;-67
2022/05/12 04:45:57;;;;;;;5.82;3.00;;;19.30;57.20;;;;;;4992528;28;92664;-67
2022/05/12 04:48:24;;;;;;;5.90;2.65;;;19.30;57.20;;;;;;5011089;28;93279;-67
2022/05/12 04:50:50;;;;;;;5.28;2.88;;;19.30;57.20;;;;;;5011048;28;93142;-67
2022/05/12 04:53:16;;;;;;;7.50;3.03;;;19.30;57.30;;;;;;5011625;28;92547;-67
2022/05/12 04:55:41;;;;;;;6.20;2.20;;;19.30;57.20;;;;;;5011528;28;92527;-67
2022/05/12 04:58:07;;;;;;;5.32;2.75;;;19.30;57.30;;;;;;5011726;28;91800;-67
2022/05/12 05:00:36;;;;;;;6.18;2.92;;;19.30;57.30;;;;;;4993133;28;93242;-67
2022/05/12 05:03:02;;;;;;;4.95;2.78;;;19.30;57.20;;;;;;5010264;28;93220;-67
2022/05/12 05:05:28;;;;;;;5.70;2.50;;;19.30;57.20;;;;;;5010232;28;94896;-67
2022/05/12 05:07:54;;;;;;;6.85;2.78;;;19.30;57.20;;;;;;5010036;28;92649;-67
2022/05/12 05:10:20;;;;;;;5.00;2.63;;;19.30;57.20;;;;;;5010630;28;93045;-67
2022/05/12 05:12:45;;;;;;;4.90;2.50;;;19.30;58.30;;;;;;4991866;28;94044;-67
2022/05/12 05:15:12;;;;;;;7.18;2.67;;;19.30;57.30;;;;;;5010649;28;92422;-67
2022/05/12 05:17:39;;;;;;;5.43;2.55;;;19.30;57.30;;;;;;5010546;28;92486;-67
2022/05/12 05:20:06;;;;;;;6.93;2.80;;;19.30;57.30;;;;;;5010829;28;93460;-67
2022/05/12 05:22:36;;;;;;;5.85;2.83;;;19.30;57.30;;;;;;5010125;28;92605;-68
2022/05/12 05:25:03;;;;;;;5.20;2.63;;;19.30;57.30;;;;;;5010199;28;92860;-67
2022/05/12 05:27:29;;;;;;;5.15;2.88;;;19.30;57.40;;;;;;4992174;28;93284;-67
2022/05/12 05:29:54;;;;;;;5.40;2.38;;;19.30;57.40;;;;;;5008701;28;95520;-67
2022/05/12 05:32:20;;;;;;;4.53;2.30;;;19.30;57.30;;;;;;5010003;28;94858;-67
2022/05/12 05:34:46;;;;;;;5.20;2.70;;;19.30;57.40;;;;;;5010092;28;93049;-68
2022/05/12 05:37:12;;;;;;;4.00;2.33;;;19.30;57.30;;;;;;5009805;28;92512;-67
2022/05/12 05:39:37;;;;;;;5.43;2.65;;;19.30;57.40;;;;;;5009390;28;93473;-67
2022/05/12 05:42:10;;;;;;;5.32;2.50;;;19.30;57.30;;;;;;5009507;28;92561;-67
2022/05/12 05:44:36;;;;;;;5.65;2.30;;;19.30;57.30;;;;;;5010124;28;92874;-67
2022/05/12 05:47:03;;;;;;;5.20;2.42;;;19.30;57.40;;;;;;5010172;28;92093;-67
2022/05/12 05:49:32;;;;;;;6.78;2.22;;;19.30;57.40;;;;;;5009757;28;93066;-67
2022/05/12 05:54:42;;;;;;;6.40;2.50;;;19.30;57.50;;;;;;5009200;28;94973;-67
2022/05/12 05:57:09;;;;;;;6.07;2.50;;;19.20;57.30;;;;;;5009571;28;93064;-67
2022/05/12 05:59:34;;;;;;;5.57;2.50;;;19.30;57.40;;;;;;5009416;28;93162;-67
2022/05/12 06:02:01;;;;;;;4.38;2.25;;;19.30;57.40;;;;;;5010128;28;93076;-67
2022/05/12 06:04:27;;;;;;;5.13;2.20;;;19.30;57.40;;;;;;4991994;28;93024;-67
2022/05/12 06:06:53;;;;;;;3.83;2.13;;;19.30;57.30;;;;;;5009845;28;92574;-67
2022/05/12 06:09:19;;;;;;;4.68;2.05;;;19.30;57.40;;;;;;5009971;28;92928;-67
2022/05/12 06:11:46;;;;;;;5.53;2.35;;;19.30;57.40;;;;;;5009073;28;92579;-67
2022/05/12 06:14:12;;;;;;;4.55;2.05;;;19.30;57.40;;;;;;5009327;28;92781;-67
2022/05/12 06:16:38;;;;;;;4.93;2.30;;;19.30;57.30;;;;;;5009529;28;92447;-67
2022/05/12 06:19:04;;;;;;;8.18;2.90;;;19.30;57.30;;;;;;5010997;28;95381;-67
2022/05/12 06:21:30;;;;;;;4.65;2.20;;;19.30;57.30;;;;;;5012720;28;95145;-67
2022/05/12 06:23:55;;;;;;;5.22;2.33;;;19.30;57.30;;;;;;5013361;28;92519;-67
2022/05/12 06:26:22;;;;;;;5.40;2.25;;;19.30;57.30;;;;;;5012879;28;92841;-67
2022/05/12 06:28:48;;;;;;;4.43;1.92;;;19.30;57.30;;;;;;5012753;28;93096;-67
2022/05/12 06:31:17;;;;;;;4.32;2.10;;;19.30;57.30;;;;;;5013117;28;93254;-67
2022/05/12 06:33:42;;;;;;;5.22;2.15;;;19.30;57.30;;;;;;5012648;28;92545;-67
2022/05/12 06:36:08;;;;;;;4.95;2.30;;;19.30;57.20;;;;;;5013285;28;92321;-67
2022/05/12 06:38:35;;;;;;;4.57;1.95;;;19.30;57.30;;;;;;5011956;28;93209;-67
2022/05/12 06:41:04;;;;;;;4.13;1.95;;;19.40;57.30;;;;;;4994533;28;92844;-67
2022/05/12 06:43:29;;;;;;;3.83;1.80;;;19.40;57.20;;;;;;5011216;28;95084;-67
2022/05/12 06:45:56;;;;;;;3.38;1.90;;;19.40;57.20;;;;;;5012864;28;93140;-67
2022/05/12 06:48:22;;;;;;;4.13;2.13;;;19.40;57.20;;;;;;4994456;28;93599;-67
2022/05/12 06:50:49;;;;;;;4.85;2.13;;;19.40;57.20;;;;;;5012459;28;92697;-67
2022/05/12 06:53:14;;;;;;;4.03;2.20;;;19.40;57.20;;;;;;5012915;28;93008;-67
2022/05/12 06:55:40;;;;;;;4.15;1.80;;;19.40;57.20;;;;;;5012953;28;92580;-67
2022/05/12 06:58:05;;;;;;;4.88;1.88;;;19.40;57.20;;;;;;5013189;28;93096;-66
2022/05/12 07:00:31;;;;;;;4.25;1.80;;;19.40;57.20;;;;;;5013716;28;92763;-67
2022/05/12 07:02:56;;;;;;;3.72;1.92;;;19.40;57.20;;;;;;5012045;28;92583;-67
2022/05/12 07:05:25;;;;;;;4.43;1.90;;;19.40;57.20;;;;;;5013143;28;92598;-67
2022/05/12 07:07:51;;;;;;;4.03;1.90;;;19.50;57.30;;;;;;4992270;28;96553;-67
2022/05/12 07:10:19;;;;;;;3.92;1.70;;;19.50;57.40;;;;;;5012102;28;95052;-68
2022/05/12 07:12:44;;;;;;;4.15;1.88;;;19.50;57.30;;;;;;5012401;28;92601;-67
2022/05/12 07:15:11;;;;;;;4.18;1.90;;;19.50;57.30;;;;;;5010713;28;92557;-68
2022/05/12 07:17:38;;;;;;;3.22;1.73;;;19.50;57.30;;;;;;5011612;28;93098;-67
2022/05/12 07:28:20;;;;;;;4.68;1.83;;;19.50;57.30;;;;;;5011479;28;92631;-67
2022/05/12 07:31:01;;;;;;;3.72;1.70;;;19.50;57.30;;;;;;5010601;28;92719;-67
2022/05/12 07:33:35;;;;;;;4.47;1.50;;;19.50;57.30;;;;;;5010037;28;94947;-67
2022/05/12 07:36:10;;;;;;;3.17;1.63;;;19.50;57.30;;;;;;4993234;28;92966;-67
2022/05/12 07:38:37;;;;;;;3.50;1.77;;;19.50;57.10;;;;;;5011851;28;93025;-67
2022/05/12 07:41:04;;;;;;;4.20;1.50;;;19.50;57.20;;;;;;5011893;28;93203;-66
2022/05/12 07:43:30;;;;;;;3.88;1.70;;;19.50;57.30;;;;;;4992863;28;93155;-66
2022/05/12 07:45:56;;;;;;;5.03;1.77;;;19.50;57.30;;;;;;5012006;28;92914;-66
2022/05/12 07:48:22;;;;;;;3.55;1.40;;;19.50;57.30;;;;;;5012349;28;93168;-66
2022/05/12 07:50:47;;;;;;;3.33;1.75;;;19.50;57.10;;;;;;5011545;28;92267;-67
2022/05/12 07:53:13;;;;;;;4.18;1.80;;;19.50;57.20;;;;;;5008719;28;92573;-67
2022/05/12 07:55:39;;;;;;;3.53;1.60;;;19.50;57.10;;;;;;5011789;28;93246;-66
2022/05/12 07:58:05;;;;;;;4.13;1.70;;;19.50;57.10;;;;;;5010539;28;95624;-66
2022/05/12 08:00:32;;;;;;;4.35;1.63;;;19.50;57.10;;;;;;4992744;28;97326;-67
2022/05/12 08:02:58;;;;;;;3.47;1.60;;;19.50;57.00;;;;;;4992877;28;92577;-67
2022/05/12 08:05:25;;;;;;;3.15;1.55;;;19.50;57.10;;;;;;5011790;28;93011;-67
2022/05/12 08:07:51;;;;;;;2.95;1.50;;;19.50;57.00;;;;;;5010603;28;93142;-67
2022/05/12 08:10:17;;;;;;;3.78;1.60;;;19.50;57.00;;;;;;5009671;28;94010;-67
2022/05/12 08:12:43;;;;;;;2.67;1.35;;;19.50;56.90;;;;;;5011530;28;92739;-67
2022/05/12 08:15:12;;;;;;;3.83;1.60;;;19.50;56.90;;;;;;5011640;28;92370;-66
2022/05/12 08:17:38;;;;;;;3.03;1.40;;;19.50;56.90;;;;;;5011617;28;93700;-66
2022/05/12 08:20:11;;;;;;;3.70;1.70;;;19.50;56.90;;;;;;4992307;28;93094;-66
2022/05/12 08:22:37;;;;;;;2.75;1.50;;;19.50;56.80;;;;;;4993313;28;94914;-66
2022/05/12 08:25:04;;;;;;;3.58;1.55;;;19.50;56.90;;;;;;5011655;28;92601;-66
2022/05/12 08:27:30;;;;;;;2.08;1.30;;;19.50;56.90;;;;;;5011969;28;93481;-65
2022/05/12 08:29:56;;;;;;;3.20;1.70;;;19.50;56.80;;;;;;5011040;28;93136;-66
2022/05/12 08:32:22;;;;;;;4.10;1.50;;;19.50;56.80;;;;;;5011623;28;92565;-66
2022/05/12 08:34:48;;;;;;;4.85;2.00;;;19.50;56.90;;;;;;5011537;28;93082;-66
2022/05/12 08:37:15;;;;;;;3.72;1.55;;;19.50;56.80;;;;;;5011184;28;93555;-66
2022/05/12 08:39:43;;;;;;;3.88;1.60;;;19.50;56.80;;;;;;5011942;28;93172;-66
2022/05/12 08:42:30;;;;;;;2.88;1.42;;;19.50;56.90;;;;;;5019076;28;92770;-67
2022/05/12 08:44:59;;;;;;;2.00;1.35;;;19.50;56.80;;;;;;5012264;28;93738;-66
2022/05/12 08:47:34;;;;;;;2.97;1.40;;;19.50;56.80;;;;;;4991189;28;96527;-66
2022/05/12 08:50:01;;;;;;;2.42;1.40;;;19.50;56.80;;;;;;5009168;28;95829;-66
2022/05/12 08:52:48;;;;;;;2.35;1.30;;;19.50;56.80;;;;;;5011000;28;92948;-66
2022/05/12 08:55:29;;;;;;;3.80;1.48;;;19.50;56.80;;;;;;5010620;28;92949;-66
2022/05/12 08:58:14;;;;;;;3.80;1.30;;;19.50;56.80;;;;;;5010426;28;93028;-65
2022/05/12 09:01:02;;;;;;;2.28;1.25;;;19.50;56.80;;;;;;5010147;28;93059;-65
2022/05/12 09:03:55;;;;;;;2.65;1.40;;;19.50;56.80;;;;;;5010856;28;92885;-65
2022/05/12 09:06:26;;;;;;;3.37;1.37;;;19.50;56.80;;;;;;5010790;28;92150;-66
2022/05/12 09:09:03;;;;;;;4.00;1.50;;;19.50;56.80;;;;;;4976084;28;93623;-66
2022/05/12 09:11:45;;;;;;;2.47;1.25;;;19.50;56.80;;;;;;4976012;28;95930;-66
2022/05/12 09:14:20;;;;;;;2.95;1.42;;;19.50;56.70;;;;;;4990840;28;95017;-66
2022/05/12 09:16:52;;;;;;;3.85;1.42;;;19.50;56.70;;;;;;4991732;28;92589;-66
2022/05/12 09:19:19;;;;;;;2.15;1.20;;;19.50;56.70;;;;;;5011432;28;93200;-66
2022/05/12 09:21:45;;;;;;;3.45;1.38;;;19.50;57.70;;;;;;5010124;28;92675;-66
2022/05/12 09:24:11;;;;;;;3.53;1.38;;;19.50;56.60;;;;;;4975764;28;92620;-66
2022/05/12 09:26:50;;;;;;;4.10;1.40;;;19.50;56.60;;;;;;4991766;28;92683;-66
2022/05/12 09:29:24;;;;;;;3.05;1.35;;;19.50;57.50;;;;;;5010136;28;93258;-66
2022/05/12 09:32:03;;;;;;;2.70;1.30;;;19.50;56.60;;;;;;5010240;28;93049;-67
2022/05/12 09:34:36;;;;;;;2.92;1.20;;;19.50;56.50;;;;;;4992009;28;93271;-66
2022/05/12 09:37:11;;;;;;;;;;;19.50;56.60;;;;;;5011161;28;92494;-66
2022/05/12 09:39:39;;;;;;;2.90;1.30;;;19.50;56.60;;;;;;4991871;28;95669;-66
2022/05/12 09:42:29;;;;;;;2.85;1.08;;;19.50;56.60;;;;;;5010796;28;95130;-66
2022/05/12 09:45:08;;;;;;;3.78;1.40;;;19.50;56.40;;;;;;5011023;28;93286;-66
2022/05/12 09:47:34;;;;;;;1.48;1.10;;;19.50;56.20;;;;;;4991782;28;93162;-66
2022/05/12 09:50:25;;;;;;;3.17;1.38;;;19.50;56.20;;;;;;5009789;28;93062;-66
2022/05/12 09:52:53;;;;;;;3.83;1.60;;;19.60;56.00;;;;;;4990704;28;93066;-67
2022/05/12 09:55:19;;;;;;;2.33;1.30;;;19.60;56.00;;;;;;4991791;28;92553;-66
2022/05/12 09:57:53;;;;;;;3.47;1.23;;;19.60;56.00;;;;;;5010332;28;91789;-66
2022/05/12 10:00:41;;;;;;;2.47;1.30;;;19.60;55.80;;;;;;5009156;28;93110;-66
2022/05/12 10:09:07;;;;;;;2.03;1.17;;;19.70;55.70;;;;;;5009458;28;93153;-66
2022/05/12 10:11:42;;;;;;;2.55;1.10;;;19.70;55.60;;;;;;5009532;28;94008;-66
2022/05/12 10:14:18;;;;;;;2.83;1.10;;;19.70;55.50;;;;;;5009499;28;92821;-66
2022/05/12 10:16:44;;;;;;;2.33;1.27;;;19.70;55.30;;;;;;5009794;28;92941;-66
2022/05/12 10:19:20;;;;;;;2.80;1.25;;;19.70;55.50;;;;;;5008959;28;92854;-66
2022/05/12 10:21:52;;;;;;;1.60;1.20;;;19.80;55.40;;;;;;5008962;28;93686;-66
2022/05/12 10:24:33;;;;;;;3.13;1.30;;;19.70;55.30;;;;;;5010451;28;92737;-66
2022/05/12 10:27:10;;;;;;;3.05;1.13;;;19.80;55.30;;;;;;5011577;28;92913;-66
2022/05/12 10:29:48;;;;;;;1.92;1.25;;;19.80;55.30;;;;;;4991353;28;93014;-65
2022/05/12 10:32:27;;;;;;;1.40;1.00;;;19.80;55.30;;;;;;5008403;28;95732;-66
2022/05/12 10:35:02;;;;;;;2.42;1.10;;;19.80;55.10;;;;;;5008704;28;95373;-66
2022/05/12 10:37:46;;;;;;;2.55;1.10;;;19.90;55.20;;;;;;5009435;28;92985;-66
2022/05/12 10:40:45;;;;;;;2.20;0.90;;;19.90;55.10;;;;;;5009644;28;92642;-66
2022/05/12 10:43:20;;;;;;;2.70;1.20;;;19.90;55.20;;;;;;4991188;28;96449;-65
2022/05/12 10:46:12;;;;;;;3.15;1.08;;;19.90;55.10;;;;;;5008656;28;92948;-66
2022/05/12 10:48:58;;;;;;;2.58;1.02;;;19.90;54.90;;;;;;4991075;28;92541;-66
2022/05/12 10:52:17;;;;;;;2.55;1.13;;;19.90;55.00;;;;;;5009747;28;92000;-66
2022/05/12 10:55:05;;;;;;;1.63;1.10;;;19.90;55.00;;;;;;4927326;28;93694;-66
2022/05/12 10:57:59;;;;;;;2.35;1.23;;;19.90;55.00;;;;;;4927566;28;95444;-66
2022/05/12 11:00:37;;;;;;;2.13;1.02;;;19.90;54.90;;;;;;4978734;28;95023;-66
2022/05/12 11:03:20;;;;;;;2.47;1.10;;;19.80;54.90;;;;;;4990485;28;93173;-67
2022/05/12 11:05:51;;;;;;;2.33;1.10;;;19.80;54.70;;;;;;5010444;28;93165;-66
2022/05/12 11:08:32;;;;;;;3.30;1.30;;;19.90;54.90;;;;;;5011615;28;92677;-66
2022/05/12 11:11:02;;;;;;;2.40;1.20;;;19.90;54.80;;;;;;4993163;28;92581;-65
2022/05/12 11:13:32;;;;;;;3.20;1.33;;;19.90;54.80;;;;;;5011922;28;92438;-67
2022/05/12 11:16:00;;;;;;;2.53;1.10;;;19.90;54.80;;;;;;5011898;28;92918;-66
2022/05/12 11:18:41;;;;;;;1.25;0.75;;;19.90;54.80;;;;;;5011996;28;92636;-66
2022/05/12 11:21:18;;;;;;;3.70;1.08;;;19.90;54.60;;;;;;5012025;28;93100;-67
2022/05/12 11:24:14;;;;;;;2.45;1.05;;;19.90;54.70;;;;;;5011688;28;92840;-67
2022/05/12 11:27:02;;;;;;;2.72;1.20;;;19.90;54.60;;;;;;5010530;28;95811;-67
2022/05/12 11:29:51;;;;;;;1.75;1.20;;;19.90;54.60;;;;;;4993363;28;97913;-66
2022/05/12 11:32:38;;;;;;;1.75;1.00;;;19.90;54.60;;;;;;5012163;28;92570;-67
2022/05/12 11:35:08;;;;;;;1.92;1.00;;;19.90;54.70;;;;;;4993769;28;93024;-67
2022/05/12 11:37:42;;;;;;;2.35;1.02;;;19.90;54.60;;;;;;4994022;28;95661;-67
2022/05/12 11:40:31;;;;;;;1.48;0.95;;;19.90;54.60;;;;;;5011472;28;92851;-67
2022/05/12 11:45:47;;;;;;;1.77;0.80;;;19.90;54.60;;;;;;5011118;28;92310;-67
2022/05/12 11:48:26;;;;;;;2.22;0.90;;;19.90;54.60;;;;;;4994658;28;93744;-67
2022/05/12 11:51:10;;;;;;;1.90;0.90;;;19.90;54.60;;;;;;4976008;28;92882;-66
2022/05/12 11:53:53;;;;;;;1.70;0.98;;;19.90;54.60;;;;;;5010882;28;95582;-67
2022/05/12 11:56:45;;;;;;;1.77;0.80;;;19.90;54.60;;;;;;5011218;28;93324;-66
2022/05/12 11:59:13;;;;;;;1.25;0.95;;;19.90;54.60;;;;;;5011680;28;92850;-66
2022/05/12 12:01:38;;;;;;;1.63;0.95;;;19.90;54.70;;;;;;5011346;28;93345;-67
2022/05/12 12:04:04;;;;;;;2.17;1.10;;;19.90;55.70;;;;;;5011516;28;92966;-67
2022/05/12 12:06:49;;;;;;;2.88;1.00;;;19.90;54.70;;;;;;5011229;28;92412;-66
2022/05/12 12:09:50;;;;;;;2.42;0.93;;;19.90;54.50;;;;;;5011818;28;93007;-66
2022/05/12 12:12:54;;;;;;;2.10;0.82;;;20.00;54.60;;;;;;4993417;28;92945;-67
2022/05/12 12:16:02;;;;;;;1.98;1.00;;;19.90;54.60;;;;;;4912408;28;92594;-66
2022/05/12 12:18:34;;;;;;;1.88;0.82;;;19.90;54.50;;;;;;4984910;28;92926;-67
2022/05/12 12:21:20;;;;;;;2.78;0.82;;;19.90;54.60;;;;;;5009758;28;95410;-66
2022/05/12 12:24:06;;;;;;;1.98;0.90;;;19.90;55.60;;;;;;5010803;28;96074;-67
2022/05/12 12:26:36;;;;;;;2.03;0.95;;;19.90;54.60;;;;;;5011555;28;92463;-67
2022/05/12 12:29:39;;;;;;;2.40;1.00;;;19.90;54.60;;;;;;4993957;28;92629;-66
2022/05/12 12:32:26;;;;;;;2.70;0.98;;;19.90;54.40;;;;;;4969443;28;93120;-66
2022/05/12 12:34:54;;;;;;;1.38;0.80;;;20.00;54.60;;;;;;5011182;28;92952;-67
2022/05/12 12:37:38;;;;;;;1.88;0.77;;;20.00;54.50;;;;;;5010855;28;92567;-67
2022/05/12 12:40:24;;;;;;;1.85;1.00;;;19.90;54.30;;;;;;4992396;28;92318;-66
2022/05/12 12:42:50;;;;;;;2.65;1.00;;;20.00;54.40;;;;;;5010230;28;93650;-66
2022/05/12 12:45:20;;;;;;;1.92;1.00;;;20.00;54.40;;;;;;5010883;28;92917;-67
2022/05/12 12:48:01;;;;;;;1.50;0.82;;;20.00;54.40;;;;;;5009890;28;95309;-66
2022/05/12 12:50:52;;;;;;;1.45;0.70;;;20.00;54.30;;;;;;5010188;28;92877;-67
2022/05/12 12:56:30;;;;;;;2.00;0.85;;;20.00;54.30;;;;;;5010926;28;93447;-67
2022/05/12 12:56:30;;;;;;;1.35;0.77;;;20.00;54.30;;;;;;5009795;28;93018;-66
2022/05/12 12:58:57;;;;;;;1.83;0.80;;;20.00;54.30;;;;;;5010857;28;92501;-66
2022/05/12 13:01:23;;;;;;;1.42;0.80;;;20.00;54.30;;;;;;5010600;28;93033;-67
2022/05/12 13:03:56;;;;;;;2.72;1.08;;;20.00;54.30;;;;;;5010215;28;92974;-67
2022/05/12 13:06:36;;;;;;;1.30;0.77;;;20.00;54.20;;;;;;5010290;28;92609;-67
2022/05/12 13:09:11;;;;;;;1.30;0.80;;;20.00;54.10;;;;;;5010483;28;92522;-67
2022/05/12 13:11:39;;;;;;;1.10;0.70;;;20.00;54.20;;;;;;5010550;28;92756;-66
2022/05/12 13:14:06;;;;;;;1.20;0.75;;;20.00;55.20;;;;;;5008942;28;95754;-66
2022/05/12 13:16:36;;;;;;;1.90;0.70;;;20.00;54.20;;;;;;5010429;28;93936;-66
2022/05/12 13:19:02;;;;;;;1.33;0.75;;;20.00;54.10;;;;;;5010907;28;92551;-66
2022/05/12 13:21:36;;;;;;;2.65;0.88;;;20.00;54.20;;;;;;5011244;28;93255;-66
2022/05/12 13:24:15;;;;;;;2.05;0.90;;;20.00;54.10;;;;;;5009934;28;93045;-66
2022/05/12 13:26:45;;;;;;;1.00;0.75;;;20.00;54.00;;;;;;4992257;28;95239;-66